Time;durP1;ratioP1;P1;durP2;ratioP2;P2;SDS_P1;SDS_P2;PMS_P1;PMS_P2;Temp;Humidity;BMP_temperature;BMP_pressure;BME280_temperature;BME280_humidity;BME280_pressure;Samples;Min_cycle;Max_cycle;Signal;HPM_P1;HPM_P2
2023/10/09 00:03:03;;;;;;;0.45;0.35;;;18.10;44.60;;;;;;6177904;23;20135;-86
2023/10/09 00:05:45;;;;;;;0.90;0.55;;;18.10;44.50;;;;;;6126234;23;20154;-86
2023/10/09 00:08:17;;;;;;;1.05;0.60;;;18.00;44.60;;;;;;6108377;23;20154;-86
2023/10/09 00:10:52;;;;;;;1.05;0.60;;;18.00;44.60;;;;;;6127064;23;20603;-86
2023/10/09 00:13:20;;;;;;;0.40;0.40;;;18.00;44.60;;;;;;6103068;23;20668;-86
2023/10/09 00:15:53;;;;;;;1.10;0.60;;;18.00;44.60;;;;;;6125642;23;20571;-85
2023/10/09 00:18:28;;;;;;;0.60;0.50;;;18.00;44.60;;;;;;6153156;23;20190;-86
2023/10/09 00:21:00;;;;;;;0.73;0.60;;;18.10;44.70;;;;;;6153587;23;20158;-86
2023/10/09 00:23:28;;;;;;;1.65;0.50;;;18.00;44.60;;;;;;6127891;23;20131;-85
2023/10/09 01:02:35;;;;;;;0.47;0.45;;;18.00;44.90;;;;;;6199428;23;20193;-85
2023/10/09 01:05:11;;;;;;;0.43;0.43;;;18.00;44.90;;;;;;6150780;23;20198;-85
2023/10/09 01:07:40;;;;;;;0.50;0.40;;;18.00;45.00;;;;;;6149863;23;20134;-85
2023/10/09 01:10:16;;;;;;;0.82;0.50;;;18.00;45.00;;;;;;6125635;23;20150;-85
2023/10/09 01:12:46;;;;;;;0.45;0.40;;;18.00;45.00;;;;;;6101462;23;20157;-85
2023/10/09 01:15:36;;;;;;;0.50;0.50;;;18.00;45.10;;;;;;6076513;23;20146;-85
2023/10/09 01:18:02;;;;;;;0.47;0.40;;;18.00;45.00;;;;;;6182499;23;20527;-85
2023/10/09 01:20:41;;;;;;;0.60;0.30;;;18.00;45.00;;;;;;6095822;23;20194;-85
2023/10/09 01:23:16;;;;;;;0.40;0.40;;;18.00;45.00;;;;;;6099523;23;20566;-86
2023/10/09 01:25:49;;;;;;;0.70;0.43;;;18.00;45.10;;;;;;6070303;23;20594;-86
2023/10/09 01:28:20;;;;;;;0.50;0.40;;;18.00;45.10;;;;;;6119439;23;20172;-86
2023/10/09 01:30:47;;;;;;;0.38;0.30;;;18.00;45.10;;;;;;6070021;23;20155;-85
2023/10/09 01:35:59;;;;;;;0.65;0.60;;;17.90;45.10;;;;;;6124915;23;20139;-86
2023/10/09 01:38:40;;;;;;;0.30;0.30;;;18.00;45.20;;;;;;6094890;23;20154;-85
2023/10/09 01:41:15;;;;;;;0.60;0.50;;;17.90;45.10;;;;;;6101513;23;20206;-86
2023/10/09 01:43:44;;;;;;;0.63;0.50;;;17.90;45.20;;;;;;6097067;23;20154;-85
2023/10/09 01:46:11;;;;;;;0.40;0.40;;;18.00;45.30;;;;;;6096711;23;20135;-85
2023/10/09 01:48:46;;;;;;;0.68;0.50;;;17.90;45.20;;;;;;6118733;23;20143;-85
2023/10/09 01:51:17;;;;;;;0.70;0.55;;;18.00;45.30;;;;;;6073619;23;20155;-86
2023/10/09 01:53:56;;;;;;;0.65;0.50;;;17.90;45.30;;;;;;6046581;23;20514;-86
2023/10/09 01:56:26;;;;;;;0.40;0.40;;;17.90;45.20;;;;;;6144836;23;20551;-86
2023/10/09 01:58:57;;;;;;;0.90;0.68;;;17.90;45.30;;;;;;6144346;23;20136;-86
2023/10/09 02:01:32;;;;;;;1.00;0.50;;;18.00;45.30;;;;;;6120809;23;20190;-85
2023/10/09 02:04:14;;;;;;;0.50;0.50;;;17.90;45.30;;;;;;6119191;23;20460;-86
2023/10/09 02:06:45;;;;;;;0.40;0.40;;;17.90;45.30;;;;;;6073323;23;20152;-85
2023/10/09 02:09:26;;;;;;;0.70;0.50;;;17.90;45.30;;;;;;6144342;23;20167;-85
2023/10/09 02:11:53;;;;;;;0.52;0.47;;;17.90;45.40;;;;;;6120946;23;20226;-85
2023/10/09 02:14:25;;;;;;;0.50;0.43;;;17.90;45.30;;;;;;6119132;23;20132;-85
2023/10/09 02:19:35;;;;;;;0.45;0.40;;;17.90;45.50;;;;;;6082078;23;20202;-85
2023/10/09 02:24:57;;;;;;;0.60;0.50;;;18.00;45.40;;;;;;6124860;23;20162;-85
2023/10/09 02:30:19;;;;;;;0.98;0.70;;;17.90;45.50;;;;;;6104470;23;20155;-85
2023/10/09 02:32:52;;;;;;;0.60;0.60;;;17.90;45.50;;;;;;6071563;23;20151;-85
2023/10/09 02:35:28;;;;;;;0.40;0.30;;;17.90;45.40;;;;;;6097463;23;20606;-85
2023/10/09 02:37:58;;;;;;;0.90;0.50;;;17.90;45.50;;;;;;6122346;23;20130;-85
2023/10/09 02:40:32;;;;;;;0.52;0.50;;;17.90;45.50;;;;;;6119457;23;20183;-85
2023/10/09 02:42:58;;;;;;;1.85;0.40;;;17.90;45.50;;;;;;6097584;23;20656;-86
2023/10/09 02:45:35;;;;;;;1.00;0.50;;;17.90;45.50;;;;;;6119434;23;20136;-85
2023/10/09 02:48:08;;;;;;;0.63;0.55;;;18.00;45.60;;;;;;6050934;23;20151;-85
2023/10/09 02:50:38;;;;;;;0.38;0.35;;;17.90;45.60;;;;;;6097874;23;20167;-86
2023/10/09 02:53:09;;;;;;;0.88;0.50;;;17.90;45.50;;;;;;6095757;23;20579;-85
2023/10/09 02:55:39;;;;;;;0.70;0.50;;;18.00;45.70;;;;;;6096815;23;20136;-86
2023/10/09 02:58:20;;;;;;;0.60;0.50;;;17.90;45.50;;;;;;6119234;23;20167;-86
2023/10/09 03:00:48;;;;;;;0.77;0.50;;;17.90;45.60;;;;;;6119197;23;20179;-85
2023/10/09 03:03:19;;;;;;;0.63;0.47;;;17.90;45.60;;;;;;6096414;23;20132;-86
2023/10/09 03:05:49;;;;;;;0.70;0.40;;;17.90;45.60;;;;;;6121921;23;20140;-86
2023/10/09 03:08:16;;;;;;;0.63;0.50;;;17.90;45.70;;;;;;6169377;23;20189;-85
2023/10/09 03:10:43;;;;;;;0.40;0.40;;;17.90;45.60;;;;;;6120332;23;20139;-86
2023/10/09 03:13:19;;;;;;;0.40;0.40;;;18.00;45.70;;;;;;6096780;23;20572;-86
2023/10/09 03:15:45;;;;;;;0.65;0.60;;;17.90;45.70;;;;;;6120722;23;20132;-86
2023/10/09 03:18:13;;;;;;;0.70;0.47;;;17.90;45.80;;;;;;6134890;23;20199;-85
2023/10/09 03:20:50;;;;;;;0.90;0.47;;;17.90;45.80;;;;;;6145259;23;20214;-85
2023/10/09 03:23:17;;;;;;;1.38;0.50;;;17.90;45.80;;;;;;6169307;23;20147;-85
2023/10/09 03:25:45;;;;;;;0.70;0.60;;;17.90;45.80;;;;;;6120939;23;20155;-85
2023/10/09 03:28:12;;;;;;;0.68;0.45;;;17.80;45.70;;;;;;6120642;23;20155;-86
2023/10/09 03:30:43;;;;;;;0.40;0.40;;;17.90;45.80;;;;;;6120311;23;20147;-85
2023/10/09 03:33:09;;;;;;;0.50;0.40;;;18.00;45.90;;;;;;6145067;23;20124;-86
2023/10/09 03:35:39;;;;;;;0.52;0.38;;;17.80;45.70;;;;;;6120610;23;20205;-85
2023/10/09 03:38:12;;;;;;;0.75;0.65;;;17.90;45.80;;;;;;6120299;23;20144;-85
2023/10/09 03:40:47;;;;;;;0.40;0.40;;;17.90;45.80;;;;;;6121067;23;20250;-86
2023/10/09 03:43:14;;;;;;;0.75;0.40;;;17.90;45.80;;;;;;6145447;23;20581;-86
2023/10/09 03:45:52;;;;;;;0.70;0.50;;;17.90;46.10;;;;;;6119524;23;20150;-86
2023/10/09 03:48:25;;;;;;;0.73;0.45;;;17.90;45.80;;;;;;6124417;23;20147;-86
2023/10/09 03:51:08;;;;;;;0.40;0.30;;;18.00;46.00;;;;;;6145306;23;20634;-86
2023/10/09 03:53:40;;;;;;;0.55;0.50;;;17.90;45.90;;;;;;6145070;23;20226;-87
2023/10/09 03:56:15;;;;;;;0.70;0.47;;;17.90;45.90;;;;;;6143731;23;20199;-86
2023/10/09 03:58:44;;;;;;;0.52;0.40;;;17.90;46.00;;;;;;6123591;23;20147;-85
2023/10/09 04:01:29;;;;;;;0.47;0.47;;;17.80;45.90;;;;;;6145108;23;20219;-86
2023/10/09 04:04:00;;;;;;;0.50;0.50;;;17.80;45.90;;;;;;6144700;23;20147;-86
2023/10/09 04:06:32;;;;;;;0.73;0.40;;;17.90;46.00;;;;;;6144559;23;20139;-85
2023/10/09 04:09:00;;;;;;;0.30;0.30;;;17.90;46.00;;;;;;6144920;23;20132;-86
2023/10/09 04:11:28;;;;;;;0.98;0.45;;;17.90;46.00;;;;;;6121365;23;20143;-86
2023/10/09 04:14:00;;;;;;;0.45;0.40;;;17.90;46.00;;;;;;6144827;23;20187;-86
2023/10/09 04:16:35;;;;;;;0.47;0.45;;;17.80;46.00;;;;;;6121988;23;20147;-86
2023/10/09 04:19:10;;;;;;;0.50;0.50;;;17.80;46.10;;;;;;6125384;23;20318;-85
2023/10/09 04:21:37;;;;;;;0.60;0.50;;;17.80;46.00;;;;;;6125741;23;20182;-85
2023/10/09 04:26:56;;;;;;;0.80;0.50;;;17.80;46.10;;;;;;6129790;23;20282;-86
2023/10/09 04:29:26;;;;;;;0.52;0.40;;;17.90;46.10;;;;;;6146654;23;20134;-86
2023/10/09 04:31:56;;;;;;;0.63;0.50;;;17.80;46.10;;;;;;6123053;23;20187;-86
2023/10/09 04:37:36;;;;;;;0.57;0.52;;;17.80;46.10;;;;;;6149711;23;20140;-86
2023/10/09 04:40:12;;;;;;;0.40;0.40;;;17.90;46.10;;;;;;6171589;23;20183;-86
2023/10/09 04:42:38;;;;;;;0.98;0.70;;;17.80;46.10;;;;;;6151889;23;20175;-86
2023/10/09 04:47:49;;;;;;;1.05;0.60;;;17.80;46.20;;;;;;6147181;23;20143;-86
2023/10/09 04:52:51;;;;;;;0.40;0.40;;;17.80;46.20;;;;;;6170427;23;20139;-86
2023/10/09 04:55:24;;;;;;;0.47;0.40;;;17.70;46.90;;;;;;6121900;23;20144;-86
2023/10/09 05:00:47;;;;;;;0.65;0.40;;;17.70;46.20;;;;;;6149555;23;20238;-86
2023/10/09 05:05:59;;;;;;;0.65;0.45;;;17.90;47.10;;;;;;6142832;23;20515;-85
2023/10/09 05:08:29;;;;;;;0.47;0.32;;;18.00;46.50;;;;;;6117469;23;20588;-86
2023/10/09 05:11:15;;;;;;;0.38;0.38;;;18.00;47.10;;;;;;6116848;23;20584;-86
2023/10/09 05:16:19;;;;;;;0.50;0.30;;;18.00;46.20;;;;;;6140961;23;20140;-86
2023/10/09 05:18:56;;;;;;;0.30;0.30;;;18.00;46.10;;;;;;6140246;23;20194;-86
2023/10/09 05:21:47;;;;;;;0.70;0.50;;;18.00;46.10;;;;;;6120374;23;20187;-87
2023/10/09 05:24:19;;;;;;;0.55;0.50;;;18.00;46.40;;;;;;6146709;23;20155;-86
2023/10/09 05:26:53;;;;;;;0.60;0.45;;;18.00;46.30;;;;;;6142186;23;20186;-87
2023/10/09 05:32:05;;;;;;;0.85;0.40;;;18.10;46.30;;;;;;6147261;23;20143;-87
2023/10/09 05:37:26;;;;;;;0.63;0.38;;;18.00;46.10;;;;;;6169556;23;20200;-87
2023/10/09 05:43:03;;;;;;;1.38;0.50;;;18.10;46.10;;;;;;6146268;23;20147;-87
2023/10/09 05:51:19;;;;;;;0.40;0.40;;;18.00;45.80;;;;;;6140997;23;20143;-87
2023/10/09 06:09:09;;;;;;;0.47;0.40;;;18.00;45.40;;;;;;6016843;23;20193;-86
2023/10/09 06:19:27;;;;;;;0.57;0.40;;;18.10;45.20;;;;;;5999020;23;20222;-86
2023/10/09 06:24:33;;;;;;;0.35;0.35;;;18.00;45.20;;;;;;6015601;23;20178;-84
2023/10/09 06:27:38;;;;;;;0.60;0.30;;;18.00;45.20;;;;;;6015459;23;20135;-85
2023/10/09 07:12:42;;;;;;;0.85;0.30;;;18.20;44.90;;;;;;6163850;23;20245;-86
2023/10/09 07:16:23;;;;;;;0.40;0.40;;;18.20;44.90;;;;;;6147165;23;20135;-86
2023/10/09 07:28:48;;;;;;;1.20;0.60;;;18.20;45.50;;;;;;6167700;23;20214;-84
2023/10/09 07:31:39;;;;;;;0.30;0.30;;;18.20;45.30;;;;;;6144662;23;20201;-85
2023/10/09 07:34:30;;;;;;;1.15;0.47;;;18.20;45.20;;;;;;6063294;23;20185;-86
2023/10/09 07:36:56;;;;;;;0.20;0.20;;;18.20;45.00;;;;;;6086521;23;20251;-85
2023/10/09 07:39:49;;;;;;;0.55;0.38;;;18.20;45.10;;;;;;6087443;23;20137;-85
2023/10/09 07:52:06;;;;;;;0.30;0.30;;;18.20;44.90;;;;;;5938827;24;20145;-85
2023/10/09 07:54:50;;;;;;;1.30;0.32;;;18.20;45.00;;;;;;5941963;24;20161;-85
2023/10/09 08:01:16;;;;;;;0.35;0.35;;;18.30;44.70;;;;;;5807181;24;20195;-86
2023/10/09 09:43:05;;;;;;;0.63;0.50;;;18.50;44.80;;;;;;6161583;23;20206;-83
2023/10/09 09:45:32;;;;;;;3.00;0.50;;;18.50;44.60;;;;;;6169253;23;20159;-85
2023/10/09 09:48:05;;;;;;;1.17;0.50;;;18.50;44.40;;;;;;6159633;23;20159;-84
2023/10/09 09:50:32;;;;;;;1.58;0.60;;;18.50;44.30;;;;;;6140198;23;20154;-83
2023/10/09 09:53:01;;;;;;;1.10;0.32;;;18.50;44.40;;;;;;6139002;23;20150;-84
2023/10/09 09:55:33;;;;;;;1.45;0.50;;;18.40;44.30;;;;;;6136291;23;20152;-84
2023/10/09 09:58:02;;;;;;;0.40;0.40;;;18.40;44.40;;;;;;6164562;23;20136;-86
2023/10/09 10:00:36;;;;;;;1.02;0.30;;;18.40;44.40;;;;;;6164071;23;20163;-85
2023/10/09 10:03:06;;;;;;;1.20;0.30;;;18.40;44.60;;;;;;6164405;23;20229;-86
2023/10/09 10:05:33;;;;;;;1.55;0.40;;;18.40;44.50;;;;;;6135538;23;20155;-86
2023/10/09 10:07:59;;;;;;;0.40;0.22;;;18.40;44.60;;;;;;6129481;23;20171;-86
2023/10/09 10:10:38;;;;;;;0.90;0.32;;;18.40;44.50;;;;;;6107476;23;20171;-85
2023/10/09 10:13:05;;;;;;;0.40;0.35;;;18.40;44.50;;;;;;6107873;23;20246;-85
2023/10/09 10:16:12;;;;;;;0.70;0.50;;;18.40;44.50;;;;;;6108054;23;20216;-86
2023/10/09 10:18:59;;;;;;;2.67;0.50;;;18.40;44.60;;;;;;6125944;23;20212;-86
2023/10/09 10:21:37;;;;;;;1.95;0.35;;;18.40;44.50;;;;;;6100534;23;20558;-86
2023/10/09 10:24:06;;;;;;;1.38;0.40;;;18.50;44.50;;;;;;6102898;23;20614;-86
2023/10/09 10:26:34;;;;;;;0.35;0.30;;;18.40;44.40;;;;;;6103195;23;20513;-86
2023/10/09 10:29:34;;;;;;;1.75;0.40;;;18.50;44.40;;;;;;6103854;23;20152;-85
2023/10/09 10:35:32;;;;;;;0.95;0.28;;;18.50;44.30;;;;;;6147258;23;20139;-85
2023/10/09 10:43:09;;;;;;;1.40;0.32;;;18.50;44.10;;;;;;6155810;23;20554;-84
2023/10/09 10:45:35;;;;;;;2.17;0.43;;;18.50;44.00;;;;;;6131434;23;20132;-84
2023/10/09 10:48:09;;;;;;;0.93;0.32;;;18.50;43.90;;;;;;6105060;23;20534;-85
2023/10/09 10:50:35;;;;;;;0.82;0.40;;;18.50;43.90;;;;;;6132274;23;20138;-84
2023/10/09 10:53:15;;;;;;;3.65;0.40;;;18.60;43.90;;;;;;6106265;23;20151;-84
2023/10/09 10:56:18;;;;;;;2.55;0.38;;;18.50;44.00;;;;;;6107314;23;20151;-85
2023/10/09 10:59:11;;;;;;;0.45;0.30;;;18.50;44.00;;;;;;6136310;23;20124;-84
2023/10/09 11:04:24;;;;;;;0.25;0.25;;;18.60;44.00;;;;;;6131755;23;20497;-85
2023/10/09 11:06:51;;;;;;;1.35;0.40;;;18.50;44.00;;;;;;6129314;23;20131;-85
2023/10/09 11:09:35;;;;;;;2.10;0.47;;;18.50;44.10;;;;;;6102542;23;20143;-84
2023/10/09 11:12:12;;;;;;;0.47;0.30;;;18.60;44.10;;;;;;6129700;23;20124;-85
2023/10/09 11:15:05;;;;;;;1.15;0.40;;;18.60;44.00;;;;;;6104922;23;20155;-84
2023/10/09 11:17:32;;;;;;;0.50;0.40;;;18.60;44.60;;;;;;6131244;23;20132;-85
2023/10/09 11:20:04;;;;;;;0.47;0.30;;;18.60;43.80;;;;;;6128233;23;20175;-84
2023/10/09 11:22:39;;;;;;;0.77;0.38;;;18.70;43.60;;;;;;6130304;23;20190;-85
2023/10/09 11:25:12;;;;;;;0.52;0.30;;;18.70;43.60;;;;;;6131445;23;20138;-85
2023/10/09 11:27:40;;;;;;;0.77;0.40;;;18.70;43.60;;;;;;6157412;23;20559;-84
2023/10/09 11:30:12;;;;;;;0.57;0.40;;;18.60;43.50;;;;;;6108747;23;20251;-86
2023/10/09 11:32:39;;;;;;;0.30;0.25;;;18.70;43.30;;;;;;6111455;23;20175;-85
2023/10/09 11:35:20;;;;;;;4.40;0.52;;;18.70;43.30;;;;;;6113524;23;20152;-84
2023/10/09 11:37:55;;;;;;;0.30;0.30;;;18.90;43.10;;;;;;6114401;23;20592;-86
2023/10/09 11:40:44;;;;;;;1.70;0.43;;;18.90;43.20;;;;;;6112262;23;20206;-85
2023/10/09 11:43:13;;;;;;;1.02;0.35;;;18.80;43.20;;;;;;6083057;23;20231;-84
2023/10/09 11:45:39;;;;;;;0.30;0.30;;;18.80;43.20;;;;;;6079016;23;20144;-85
2023/10/09 11:53:45;;;;;;;0.70;0.40;;;18.80;43.40;;;;;;6128175;23;20191;-86
2023/10/09 11:56:16;;;;;;;0.40;0.30;;;18.90;43.70;;;;;;6082242;23;20167;-85
2023/10/09 11:58:43;;;;;;;0.55;0.30;;;18.90;43.20;;;;;;6107415;23;20291;-85
2023/10/09 12:01:16;;;;;;;0.80;0.40;;;18.90;43.00;;;;;;6104907;23;20180;-86
2023/10/09 12:03:50;;;;;;;1.45;0.47;;;19.00;42.70;;;;;;6098596;23;20148;-86
2023/10/09 12:06:21;;;;;;;0.50;0.40;;;19.00;42.70;;;;;;6114226;23;20131;-86
2023/10/09 12:08:50;;;;;;;0.45;0.40;;;19.00;42.70;;;;;;6116143;23;20235;-85
2023/10/09 12:11:22;;;;;;;1.83;0.35;;;18.90;42.70;;;;;;6113824;23;20150;-85
2023/10/09 12:13:56;;;;;;;0.50;0.30;;;18.90;42.70;;;;;;6118739;23;20143;-86
2023/10/09 12:16:27;;;;;;;0.40;0.40;;;18.80;42.70;;;;;;6118203;23;20132;-85
2023/10/09 12:18:54;;;;;;;0.77;0.40;;;18.80;42.80;;;;;;6114114;23;20132;-86
2023/10/09 12:21:27;;;;;;;1.00;0.45;;;18.90;42.50;;;;;;6109973;23;20510;-87
2023/10/09 12:23:57;;;;;;;0.52;0.40;;;18.80;42.50;;;;;;6077955;23;20156;-86
2023/10/09 12:26:25;;;;;;;0.80;0.50;;;18.90;42.70;;;;;;6077214;23;20176;-85
2023/10/09 12:28:57;;;;;;;0.63;0.50;;;18.80;42.70;;;;;;6072549;23;20157;-85
2023/10/09 12:31:26;;;;;;;0.60;0.30;;;18.80;42.60;;;;;;6053457;23;20187;-84
2023/10/09 12:33:59;;;;;;;1.05;0.50;;;18.80;42.60;;;;;;6049467;23;20153;-88
2023/10/09 12:36:36;;;;;;;0.47;0.20;;;18.80;42.80;;;;;;6027802;23;20191;-85
2023/10/09 12:39:03;;;;;;;0.75;0.30;;;18.80;42.80;;;;;;6050649;23;20244;-86
2023/10/09 12:44:27;;;;;;;0.45;0.40;;;18.80;42.70;;;;;;6093926;23;20180;-86
2023/10/09 12:46:52;;;;;;;0.73;0.30;;;18.80;42.70;;;;;;6070983;23;20721;-86
2023/10/09 12:49:24;;;;;;;1.20;0.50;;;18.80;42.50;;;;;;6073096;23;20152;-85
2023/10/09 12:51:52;;;;;;;1.05;0.32;;;18.80;42.60;;;;;;6074122;23;20226;-86
2023/10/09 12:54:24;;;;;;;1.35;0.30;;;18.80;42.50;;;;;;6055625;23;20152;-84
2023/10/09 12:56:49;;;;;;;0.68;0.30;;;18.80;42.60;;;;;;6102797;23;20163;-85
2023/10/09 12:59:15;;;;;;;0.35;0.30;;;18.80;42.70;;;;;;6077864;23;20152;-85
2023/10/09 13:01:42;;;;;;;0.43;0.30;;;18.80;42.60;;;;;;6101874;23;20169;-85
2023/10/09 13:04:11;;;;;;;0.60;0.50;;;18.70;43.30;;;;;;6076729;23;20153;-85
2023/10/09 13:06:43;;;;;;;0.40;0.32;;;18.70;42.80;;;;;;6076788;23;20255;-85
2023/10/09 13:09:13;;;;;;;0.30;0.30;;;18.70;42.80;;;;;;6078016;23;20145;-85
2023/10/09 13:11:41;;;;;;;0.38;0.25;;;18.70;42.80;;;;;;6099865;23;20136;-85
2023/10/09 13:16:45;;;;;;;1.35;0.45;;;18.70;42.90;;;;;;6098644;23;20201;-85
2023/10/09 13:19:11;;;;;;;1.00;0.30;;;18.80;42.80;;;;;;6100924;23;20133;-85
2023/10/09 13:21:39;;;;;;;0.63;0.38;;;18.80;42.70;;;;;;6076432;23;20296;-85
2023/10/09 13:24:05;;;;;;;0.60;0.40;;;18.80;42.70;;;;;;6077627;23;20149;-85
2023/10/09 13:26:32;;;;;;;1.50;0.30;;;18.80;42.80;;;;;;6099852;23;20137;-85
2023/10/09 13:28:59;;;;;;;0.43;0.32;;;18.80;42.90;;;;;;6096889;23;20252;-85
2023/10/09 13:31:26;;;;;;;2.05;0.43;;;18.80;42.80;;;;;;6071922;23;20155;-84
2023/10/09 13:33:55;;;;;;;1.33;0.30;;;18.90;42.60;;;;;;6072083;23;20577;-85
2023/10/09 13:36:31;;;;;;;0.52;0.30;;;18.90;42.50;;;;;;6073528;23;20473;-84
2023/10/09 13:39:02;;;;;;;1.48;0.30;;;18.90;42.50;;;;;;6096160;23;20228;-84
2023/10/09 13:41:29;;;;;;;0.40;0.30;;;18.90;42.50;;;;;;6105878;23;20188;-85
2023/10/09 13:43:56;;;;;;;0.60;0.30;;;18.90;42.50;;;;;;6101530;23;20178;-84
2023/10/09 13:46:23;;;;;;;0.82;0.40;;;18.90;42.50;;;;;;6101510;23;20536;-85
2023/10/09 13:48:52;;;;;;;0.75;0.28;;;18.80;42.50;;;;;;6127599;23;20480;-84
2023/10/09 13:51:23;;;;;;;0.35;0.28;;;18.80;42.60;;;;;;6076947;23;20152;-85
2023/10/09 13:53:49;;;;;;;0.40;0.30;;;18.80;42.60;;;;;;6101203;23;20136;-84
2023/10/09 13:56:19;;;;;;;0.43;0.32;;;18.90;42.50;;;;;;6125553;23;20132;-85
2023/10/09 13:58:54;;;;;;;0.30;0.30;;;18.90;42.60;;;;;;6127844;23;20128;-86
2023/10/09 14:01:32;;;;;;;0.52;0.35;;;18.90;42.70;;;;;;5983710;24;20701;-86
2023/10/09 14:17:42;;;;;;;1.52;0.40;;;18.90;44.00;;;;;;5981997;24;20147;-84
2023/10/09 14:22:55;;;;;;;0.93;0.52;;;18.90;43.40;;;;;;5980738;24;20512;-84
2023/10/09 14:25:21;;;;;;;0.57;0.30;;;18.90;43.40;;;;;;5934616;24;20164;-85
2023/10/09 14:27:48;;;;;;;0.47;0.40;;;18.80;43.30;;;;;;5935330;24;20178;-85
2023/10/09 14:30:34;;;;;;;0.43;0.30;;;18.90;43.40;;;;;;5936573;24;20151;-86
2023/10/09 14:33:03;;;;;;;0.65;0.38;;;18.80;43.20;;;;;;5990672;23;20245;-85
2023/10/09 14:35:30;;;;;;;3.50;0.25;;;18.80;43.40;;;;;;5992508;23;20603;-85
2023/10/09 14:37:57;;;;;;;0.80;0.45;;;18.80;43.30;;;;;;5970280;23;20150;-86
2023/10/09 14:40:29;;;;;;;0.52;0.30;;;18.70;43.30;;;;;;6016280;23;20174;-85
2023/10/09 14:42:59;;;;;;;0.35;0.30;;;18.70;43.40;;;;;;5993929;23;20201;-85
2023/10/09 14:45:26;;;;;;;0.35;0.35;;;18.70;43.20;;;;;;5992868;23;20149;-85
2023/10/09 14:47:55;;;;;;;0.85;0.40;;;18.70;43.70;;;;;;5903519;24;20203;-87
2023/10/09 14:50:22;;;;;;;0.52;0.30;;;18.70;43.90;;;;;;5884307;24;20161;-86
2023/10/09 14:52:50;;;;;;;0.95;0.47;;;18.70;44.10;;;;;;5889217;24;20567;-86
2023/10/09 14:55:20;;;;;;;0.75;0.30;;;18.70;44.00;;;;;;5889712;24;20161;-85
2023/10/09 14:57:49;;;;;;;1.30;0.30;;;18.80;44.20;;;;;;5890724;24;20209;-85
2023/10/09 15:00:22;;;;;;;1.58;0.30;;;18.80;44.80;;;;;;5911646;24;20180;-85
2023/10/09 15:02:50;;;;;;;1.05;0.45;;;18.70;44.20;;;;;;5938105;24;20160;-84
2023/10/09 15:05:16;;;;;;;1.27;0.30;;;18.80;44.20;;;;;;5991170;24;20147;-85
2023/10/09 15:07:42;;;;;;;0.30;0.20;;;18.80;44.30;;;;;;5991006;24;20151;-85
2023/10/09 15:10:09;;;;;;;0.50;0.40;;;18.80;44.30;;;;;;5966285;23;20192;-84
2023/10/09 15:12:42;;;;;;;0.30;0.30;;;18.70;44.10;;;;;;5983681;24;20203;-84
2023/10/09 15:15:13;;;;;;;1.60;0.30;;;18.80;44.10;;;;;;5981593;24;20155;-85
2023/10/09 15:17:43;;;;;;;0.63;0.30;;;18.80;44.20;;;;;;5982220;23;20158;-84
2023/10/09 15:20:13;;;;;;;0.90;0.40;;;18.80;44.10;;;;;;6015265;23;20190;-84
2023/10/09 15:22:42;;;;;;;1.52;0.40;;;18.80;44.10;;;;;;5970288;23;20158;-84
2023/10/09 15:25:14;;;;;;;0.40;0.30;;;18.80;44.10;;;;;;5991653;23;20631;-84
2023/10/09 15:27:42;;;;;;;0.20;0.20;;;18.80;44.20;;;;;;5992981;23;20138;-85
2023/10/09 15:30:13;;;;;;;1.90;0.40;;;18.70;44.20;;;;;;6017599;23;20183;-84
2023/10/09 15:32:41;;;;;;;0.80;0.40;;;18.70;44.30;;;;;;5996501;23;20139;-83
2023/10/09 15:35:12;;;;;;;0.80;0.50;;;18.70;44.50;;;;;;5994960;23;20524;-84
2023/10/09 15:37:40;;;;;;;0.40;0.35;;;18.70;44.50;;;;;;6018377;23;20293;-84
2023/10/09 15:40:13;;;;;;;2.08;0.30;;;18.70;44.60;;;;;;5970626;23;20197;-84
2023/10/09 15:42:40;;;;;;;1.10;0.30;;;18.70;44.50;;;;;;6039452;23;20196;-83
2023/10/09 15:45:07;;;;;;;0.40;0.30;;;18.80;44.70;;;;;;6040379;23;20153;-84
2023/10/09 15:47:36;;;;;;;1.48;0.32;;;18.70;44.60;;;;;;6096585;23;20165;-85
2023/10/09 15:50:03;;;;;;;0.40;0.38;;;18.70;44.60;;;;;;6098439;23;20605;-85
2023/10/09 15:52:29;;;;;;;0.65;0.32;;;18.80;44.70;;;;;;6107690;23;20148;-86
2023/10/09 15:54:55;;;;;;;0.82;0.30;;;18.70;44.70;;;;;;6107060;23;20158;-85
2023/10/09 15:57:21;;;;;;;0.28;0.20;;;18.70;44.90;;;;;;6130830;23;20136;-85
2023/10/09 15:59:50;;;;;;;1.88;0.50;;;18.70;44.90;;;;;;6131111;23;20131;-85
2023/10/09 16:02:18;;;;;;;0.52;0.30;;;18.70;44.90;;;;;;6107632;23;20211;-86
2023/10/09 16:04:44;;;;;;;1.30;0.28;;;18.80;45.00;;;;;;6106097;23;20237;-85
2023/10/09 16:07:11;;;;;;;0.35;0.35;;;18.70;45.10;;;;;;6108631;23;20461;-86
2023/10/09 16:09:39;;;;;;;0.30;0.30;;;18.80;45.40;;;;;;6158302;23;20128;-87
2023/10/09 16:12:07;;;;;;;0.80;0.40;;;18.70;45.50;;;;;;6132662;23;20132;-86
2023/10/09 16:14:38;;;;;;;0.47;0.40;;;18.70;45.50;;;;;;6107852;23;20147;-86
2023/10/09 16:17:06;;;;;;;1.55;0.40;;;18.70;45.60;;;;;;6110650;23;20179;-87
2023/10/09 16:19:32;;;;;;;1.27;0.40;;;18.70;45.60;;;;;;6109223;23;20150;-86
2023/10/09 16:22:03;;;;;;;2.05;0.50;;;18.70;45.50;;;;;;6107005;23;20187;-86
2023/10/09 16:24:34;;;;;;;2.05;0.40;;;18.70;45.30;;;;;;6109541;23;20218;-86
2023/10/09 16:27:03;;;;;;;0.55;0.30;;;18.80;45.30;;;;;;6113078;23;20154;-87
2023/10/09 16:29:32;;;;;;;0.77;0.50;;;18.70;45.30;;;;;;6115183;23;20186;-86
2023/10/09 16:31:58;;;;;;;0.50;0.38;;;18.80;45.40;;;;;;6045979;23;20187;-86
2023/10/09 16:34:26;;;;;;;2.10;0.50;;;18.70;45.30;;;;;;6003619;23;20162;-85
2023/10/09 16:36:52;;;;;;;0.40;0.40;;;18.80;45.40;;;;;;6005569;23;20149;-86
2023/10/09 16:39:22;;;;;;;0.75;0.40;;;18.70;45.30;;;;;;6026079;23;20205;-85
2023/10/09 16:42:01;;;;;;;0.98;0.40;;;18.80;45.40;;;;;;6027339;23;20205;-85
2023/10/09 16:44:36;;;;;;;0.50;0.50;;;18.80;45.40;;;;;;6005220;23;20226;-85
2023/10/09 16:47:05;;;;;;;0.73;0.40;;;18.70;45.40;;;;;;6004423;23;20212;-86
2023/10/09 16:49:32;;;;;;;0.95;0.50;;;18.70;45.30;;;;;;6030092;23;20157;-84
2023/10/09 16:52:11;;;;;;;0.50;0.47;;;18.70;45.40;;;;;;6027565;23;20192;-84
2023/10/09 16:54:38;;;;;;;0.55;0.40;;;18.70;45.50;;;;;;6001335;23;20173;-85
2023/10/09 16:57:08;;;;;;;0.63;0.40;;;18.70;45.50;;;;;;6022525;23;20202;-86
2023/10/09 16:59:35;;;;;;;0.88;0.40;;;18.70;45.40;;;;;;5996439;23;20241;-85
2023/10/09 17:02:01;;;;;;;2.88;0.40;;;18.70;45.40;;;;;;6054342;23;20290;-86
2023/10/09 17:04:33;;;;;;;1.70;0.45;;;18.70;45.40;;;;;;6084259;23;20163;-85
2023/10/09 17:07:04;;;;;;;0.82;0.50;;;18.70;45.50;;;;;;6107726;23;20155;-86
2023/10/09 17:09:30;;;;;;;0.82;0.43;;;18.70;45.30;;;;;;6081979;23;20272;-86
2023/10/09 17:12:00;;;;;;;1.67;0.40;;;18.70;45.30;;;;;;6080701;23;20167;-84
2023/10/09 17:14:28;;;;;;;2.38;0.50;;;18.70;45.20;;;;;;6081623;23;20144;-86
2023/10/09 17:16:57;;;;;;;0.52;0.40;;;18.70;45.30;;;;;;6055179;23;20155;-86
2023/10/09 17:19:24;;;;;;;2.28;0.60;;;18.80;45.20;;;;;;6082388;23;20152;-86
2023/10/09 17:21:50;;;;;;;0.43;0.40;;;18.70;45.40;;;;;;6079791;23;20171;-86
2023/10/09 17:24:15;;;;;;;0.82;0.40;;;18.80;45.40;;;;;;6080113;23;20231;-86
2023/10/09 17:26:45;;;;;;;0.75;0.50;;;18.80;45.40;;;;;;6088869;23;20592;-85
2023/10/09 17:29:12;;;;;;;1.58;0.40;;;18.80;45.50;;;;;;6114122;23;20171;-86
2023/10/09 17:31:39;;;;;;;1.77;0.60;;;18.70;45.50;;;;;;6114929;23;20151;-84
2023/10/09 17:34:07;;;;;;;0.40;0.30;;;18.80;45.50;;;;;;6142853;23;20140;-84
2023/10/09 17:36:33;;;;;;;0.82;0.40;;;18.70;45.40;;;;;;6116509;23;20143;-86
2023/10/09 17:39:04;;;;;;;0.80;0.50;;;18.70;45.40;;;;;;6118393;23;20151;-86
2023/10/09 17:41:34;;;;;;;3.35;0.40;;;18.70;45.40;;;;;;6080618;23;20232;-85
2023/10/09 17:44:02;;;;;;;0.77;0.40;;;18.70;46.20;;;;;;6083493;23;20153;-86
2023/10/09 17:46:29;;;;;;;0.65;0.40;;;18.70;45.70;;;;;;6106279;23;20152;-83
2023/10/09 17:48:57;;;;;;;0.90;0.52;;;18.70;45.90;;;;;;6080931;23;20477;-85
2023/10/09 17:51:24;;;;;;;1.33;0.50;;;18.70;45.90;;;;;;6080868;23;20145;-85
2023/10/09 17:53:50;;;;;;;3.25;0.60;;;18.70;46.00;;;;;;6079717;23;20157;-86
2023/10/09 17:56:18;;;;;;;1.27;0.43;;;18.70;45.90;;;;;;6082427;23;20153;-84
2023/10/09 17:58:49;;;;;;;0.93;0.60;;;18.70;46.00;;;;;;6082645;23;20244;-85
2023/10/09 18:01:17;;;;;;;0.80;0.45;;;18.80;46.10;;;;;;6103151;23;20184;-85
2023/10/09 18:03:46;;;;;;;0.43;0.43;;;18.70;46.20;;;;;;6082815;23;20171;-87
2023/10/09 18:06:16;;;;;;;1.05;0.55;;;18.80;46.20;;;;;;6102259;23;20141;-85
2023/10/09 18:08:42;;;;;;;0.95;0.60;;;18.80;46.20;;;;;;6100920;23;20125;-85
2023/10/09 18:11:09;;;;;;;1.63;0.60;;;18.70;46.10;;;;;;6099316;23;20141;-86
2023/10/09 18:13:35;;;;;;;0.90;0.63;;;18.70;46.10;;;;;;6100621;23;20141;-86
2023/10/09 18:16:07;;;;;;;2.00;0.70;;;18.70;46.10;;;;;;6078657;23;20603;-85
2023/10/09 18:18:35;;;;;;;0.90;0.50;;;18.60;46.10;;;;;;6078716;23;20152;-86
2023/10/09 18:21:05;;;;;;;1.00;0.60;;;18.70;46.10;;;;;;6100092;23;20192;-84
2023/10/09 18:23:31;;;;;;;0.60;0.60;;;18.70;46.20;;;;;;6099652;23;20136;-86